Terminal Aerodrome Forecast
Issued by NWS Charleston, WV

Current Version | Previous Version | Graphics & Text | Print | Product List | Glossary On
Versions: 1 2 3 4 5 6 7 8 9 10 11 12 13 14 15 16 17 18 19 20 21
000
FTUS41 KRLX 080304 AAA
TAFCRW
TAF AMD
KCRW 080304Z 0803/0824 00000KT P6SM SCT120
     FM081100 26007KT P6SM BKN060
     FM081600 26009KT P6SM SCT200
     FM081800 27012G21KT P6SM SCT200
     FM082100 27011G19KT P6SM SCT040=

USA.gov is the U.S. government's official web portal to all federal, state and local government web resources and services.